Aérodrome :
LOGIN :

S'inscrire | Disclaimer

   EN    FR    IT 

 










Légende :    VFR   VFR Marginal   IFR   IFR Intensif   IFR Très Intensif
Visi : 
Plafond : 
>= 8 km
>= 3000ft
5 à 8 km
1000 à 3000 ft
1500m à 5 km
500 à 1000 ft
800 à 1500m
200 à 500 ft
< 800m
< 200 ft
Symboles :   Orages  Brouillard  Fortes neiges  Fortes précipitations  Vent > 20 kt
SIGMETs :   Divers  Orages  Givrage  Turbulence  Onde Orograph.  Cendres Volcan.






- Altitude de l'aérodrome : 408 ft
- Code IATA : KWG


UKDR - Lozuvatka

DERNIER METAR :
  • 270230Z 15004MPS 7000 NSC 05/03 Q0997 R18/09//70 NOSIG

METARs EXPIRÉS :
  • 270200Z 15004MPS 8000 NSC 05/03 Q0997 R18/09//70 NOSIG
  • 270130Z 16004MPS 9000 NSC 04/03 Q0997 R18/09//70 NOSIG
  • 270100Z 16004MPS 140V210 CAVOK 05/03 Q0997 R18/09//70 NOSIG
  • 270030Z 16005MPS 140V240 CAVOK 05/03 Q0998 R18/09//70 NOSIG
  • 270000Z 16004MPS 130V200 CAVOK 05/03 Q0998 R18/09//70 NOSIG
  • 262330Z 16005MPS 9000 NSC 05/03 Q0998 R18/09//70 NOSIG

TAF TAF UKDR
Valide du 27 à 00h jusqu'au 28 à 00h UTC


262310Z 2700/2724 18006MPS 2100 BR OVC007 TX14/2712Z TN03/2703Z
TEMPO 2700/2706 1100 BR OVC003
BECMG 2708/2710 19007G12MPS 9999 NSW BKN015
TEMPO 2718/2724 36006MPS 2100 -SHRA BR BKN007 BKN015CB



MET'MAP, la Météo Aéronautique d'un coup d'oeil ! - Copyright ORBIFLY Décembre 2007 - Disclaimer

ORBIFLY MET'MAP TEAM :

Programmation & Développement : Alexandra Zaïnal
Sur une idée originale de : Baudouin d'Aumeries
Assistance à la programmation : Marc-Olivier Méhu
Soutien technique & logistique : Manuel Goepfert

Contact : metmap@orbifly.com




SOURCES & CREDITS :

   NOAA